LUK weather

Cincinnati Municipal Airport Lunken Field
Cincinnati, Ohio, United States

Public forecast

Using degrees Fahrenheit for public forecast. Weather courtesy of forecast.io.

METAR (pilot weather report)

Retrieved 2019/03/20 22:53 UTC (8 minutes ago):

KLUK 202253Z 19006KT 10SM BKN065 OVC100 13/M03 A3000 RMK AO2 SLP162 T01331028

TAF (pilot weather forecast)

Retrieved 2019/03/20 18:42 UTC (4 hours ago):

TAF KLUK 201740Z 2018/2118 20010KT P6SM SCT060 BKN250 FM202300 23003KT P6SM VCSH OVC060 FM210300 22003KT P6SM -SHRA OVC025 FM210600 22003KT 5SM -SHRA OVC018 FM211100 26005KT P6SM VCSH OVC007 FM211500 30010KT P6SM -SHRA OVC012